KHHF

Details ICAO KHHF
Name HEMPHILL CO
Region United States
Timezone America/Chicago (UTC-5.0)
Plans Departing 3
Arriving 6
Stats Elevation 2,394 ft / 730 m (AMSL)
Location 35.895130° -100.403680°
Runways 2
Magnetic Variation 5.420° E
Sunrise 2018-05-20 11:33:52 UTC / 2018-05-20 06:33:52 Local
Sunset 2018-05-21 01:45:18 UTC / 2018-05-20 20:45:18 Local
Advertisement - Login to hide

Runways

ID Width Length Bearing (true) Bearing (mag) Surface Threshold Offset Overrun Length
04 75 ft / 23 m 5,001 ft / 1,524 m 43.87° 38.45° Asphalt 0 ft / 0 m 0 ft / 0 m
18 30 ft / 9 m 3,007 ft / 917 m 185.23° 179.81° Asphalt 94 ft / 29 m 0 ft / 0 m
22 75 ft / 23 m 5,001 ft / 1,524 m 223.87° 218.45° Asphalt 0 ft / 0 m 0 ft / 0 m
36 30 ft / 9 m 3,007 ft / 917 m 5.23° 359.81° Asphalt 0 ft / 0 m 0 ft / 0 m

Map

Weather


0- 5 10 15 20 25 30 35+ Temperature / ° C

Clouds and Precipitation
Forecast for 2018-05-20 18:00 UTC. Updated 2 hours ago

Ground ~20,000 ft ~40,000 ft Winds

METAR

KHHF 201935Z AUTO 36008KT 10SM CLR 22/10 A3012 RMK AO2 T02170100

TAF

Not found

Frequencies

Recorded 119.02 MHz AWOS 3
Approach 122.10 MHz FORT WORTH RDO
Unicom 122.90 MHz CTAF
Warning: Do not use this data for real-world aviation or navigation. No guarantee of current accuracy is given.